Killingworth, CT

6:27 AM EDT on October 24, 2014 (GMT -0400)
St. Lawrence Church Neighborhood | Change Station
CLOSE
Current Station
Personal Weather Station
Location: Killingworth, CT
Elevation: 465 ft
Nearby Weather Stations

Elev 465 ft 41.36 °N, 72.57 °W | Updated 30 minutes ago

Overcast
Overcast
47.2 °F
Feels Like 47 °F
N
0.0
Wind Variable Wind from NNW
Gusts 2.8 mph

Today
High -- | Low -- °F
--% Chance of Precip.
Yesterday
High -- | Low -- °F
Precip. -- in
7:12 AM 5:56 PM
New Moon, 0% visible
Pressure 29.74 in
Visibility 10.0 miles
Clouds Mostly Cloudy 11000 ft
Windchill 47 °F
Dew Point 45 °F
Humidity 93%
Rainfall 0.00 in
Snow Depth Not available.
UV 0 out of 12
Pollen .10 out of 12
Air Quality Not available.
Flu Activity Sporadic
METAR KSNC 240955Z AUTO 32010G14KT 10SM BKN110 09/07 A2974 RMK AO2

More Conditions Fewer Conditions

Pressure 29.74 in
Visibility 10.0 miles
Clouds Mostly Cloudy 11000 ft
Windchill 47 °F
Dew Point 45 °F
Humidity 93%
Rainfall 0.00 in
Snow Depth Not available.
UV 0 out of 12
Pollen .10 out of 12
Air Quality Not available.
Flu Activity Sporadic
METAR KSNC 240955Z AUTO 32010G14KT 10SM BKN110 09/07 A2974 RMK AO2

More Conditions Fewer Conditions

10-Day Weather Forecast

Almanac

Astronomy

Oct. 24, 2014 Rise Set
Actual Time 7:12 AM EDT 5:56 PM EDT
Civil Twilight 6:44 AM EDT 6:24 PM EDT
Nautical Twilight 6:11 AM EDT 6:56 PM EDT
Astronomical Twilight 5:39 AM EDT 7:28 PM EDT
Moon 7:48 AM EDT 6:33 PM EDT
Length of Visible Light 11h 40m
Length of Day
10h 43m
Tomorrow will be 2m 33s shorter.
New Moon, 0% of the Moon is Illuminated
Today
New Moon
Oct 30
First Quarter
Nov 6
Full
Nov 14
Last Quarter
Nov 22
New

Today's Extremes

State Highs State Lows

Community

WunderPhotos

Upload Photos

1,764,513 photos uploaded!

WunderBlogs® & News

Nearby

Air Quality

  Air Quality AQ Index Pollutant
Friday Good
PM2.5

Snow Depth

Station Depth Elevation
No new snow has been reported.

Earthquake Activity

City Distance Mag. Time & Date
No recent earthquake activity has been reported nearby.
Minimum magnitude displayed is 2.5.

Coastal Water Temperatures

Place Temperature
New London, CT 61.0 °F
New Haven, CT 59.0 °F
Newport, RI 60.1 °F
Quonset Point, RI 59.0 °F
Conimicut Light, RI 60.1 °F
Providence, RI 60.1 °F

Nearby Weather Stations